sensor_id;sensor_type;location;lat;lon;timestamp;P1;durP1;ratioP1;P2;durP2;ratioP2
35126;SDS011;21300;52.006;5.798;2023-04-01T00:00:51;5.30;;;2.85;;
35126;SDS011;21300;52.006;5.798;2023-04-01T00:03:18;5.53;;;2.47;;
35126;SDS011;21300;52.006;5.798;2023-04-01T00:05:45;9.02;;;2.97;;
35126;SDS011;21300;52.006;5.798;2023-04-01T00:08:11;4.55;;;2.70;;
35126;SDS011;21300;52.006;5.798;2023-04-01T00:10:36;5.57;;;3.00;;
35126;SDS011;21300;52.006;5.798;2023-04-01T00:13:02;5.03;;;2.95;;
35126;SDS011;21300;52.006;5.798;2023-04-01T00:15:28;4.82;;;3.15;;
35126;SDS011;21300;52.006;5.798;2023-04-01T00:17:53;4.07;;;2.53;;
35126;SDS011;21300;52.006;5.798;2023-04-01T00:20:20;4.07;;;2.58;;
35126;SDS011;21300;52.006;5.798;2023-04-01T00:22:46;5.43;;;3.20;;
35126;SDS011;21300;52.006;5.798;2023-04-01T00:25:12;5.90;;;3.28;;
35126;SDS011;21300;52.006;5.798;2023-04-01T00:27:38;6.45;;;4.03;;
35126;SDS011;21300;52.006;5.798;2023-04-01T00:30:03;5.35;;;4.07;;
35126;SDS011;21300;52.006;5.798;2023-04-01T00:32:30;5.65;;;4.03;;
35126;SDS011;21300;52.006;5.798;2023-04-01T00:34:56;6.90;;;4.30;;
35126;SDS011;21300;52.006;5.798;2023-04-01T00:37:24;6.03;;;4.60;;
35126;SDS011;21300;52.006;5.798;2023-04-01T00:39:51;5.85;;;4.22;;
35126;SDS011;21300;52.006;5.798;2023-04-01T00:42:16;7.20;;;4.78;;
35126;SDS011;21300;52.006;5.798;2023-04-01T00:44:44;7.35;;;5.53;;
35126;SDS011;21300;52.006;5.798;2023-04-01T00:47:12;9.63;;;6.38;;
35126;SDS011;21300;52.006;5.798;2023-04-01T00:49:39;10.55;;;7.55;;
35126;SDS011;21300;52.006;5.798;2023-04-01T00:52:07;10.43;;;6.95;;
35126;SDS011;21300;52.006;5.798;2023-04-01T00:54:36;11.57;;;7.80;;
35126;SDS011;21300;52.006;5.798;2023-04-01T00:57:05;10.73;;;8.20;;
35126;SDS011;21300;52.006;5.798;2023-04-01T00:59:35;11.43;;;8.93;;
35126;SDS011;21300;52.006;5.798;2023-04-01T01:02:05;15.57;;;9.93;;
35126;SDS011;21300;52.006;5.798;2023-04-01T01:04:34;14.07;;;9.55;;
35126;SDS011;21300;52.006;5.798;2023-04-01T01:10:01;15.40;;;10.60;;
35126;SDS011;21300;52.006;5.798;2023-04-01T01:12:45;16.70;;;11.93;;
35126;SDS011;21300;52.006;5.798;2023-04-01T01:15:13;15.52;;;10.68;;
35126;SDS011;21300;52.006;5.798;2023-04-01T01:22:57;17.85;;;11.00;;
35126;SDS011;21300;52.006;5.798;2023-04-01T01:25:54;14.95;;;9.95;;
35126;SDS011;21300;52.006;5.798;2023-04-01T01:31:03;14.10;;;10.02;;
35126;SDS011;21300;52.006;5.798;2023-04-01T01:33:45;14.65;;;10.32;;
35126;SDS011;21300;52.006;5.798;2023-04-01T01:36:13;15.27;;;8.80;;
35126;SDS011;21300;52.006;5.798;2023-04-01T01:38:40;13.82;;;9.30;;
35126;SDS011;21300;52.006;5.798;2023-04-01T01:41:06;17.85;;;9.63;;
35126;SDS011;21300;52.006;5.798;2023-04-01T01:43:35;15.48;;;9.60;;
35126;SDS011;21300;52.006;5.798;2023-04-01T01:46:09;12.77;;;8.13;;
35126;SDS011;21300;52.006;5.798;2023-04-01T01:48:41;18.10;;;7.90;;
35126;SDS011;21300;52.006;5.798;2023-04-01T01:51:08;16.67;;;7.90;;
35126;SDS011;21300;52.006;5.798;2023-04-01T01:53:34;15.43;;;7.30;;
35126;SDS011;21300;52.006;5.798;2023-04-01T01:56:01;18.23;;;7.45;;
35126;SDS011;21300;52.006;5.798;2023-04-01T01:58:28;16.45;;;7.63;;
35126;SDS011;21300;52.006;5.798;2023-04-01T02:00:58;19.30;;;8.50;;
35126;SDS011;21300;52.006;5.798;2023-04-01T02:03:27;20.00;;;8.25;;
35126;SDS011;21300;52.006;5.798;2023-04-01T02:05:56;24.17;;;8.88;;
35126;SDS011;21300;52.006;5.798;2023-04-01T02:08:28;25.00;;;9.15;;
35126;SDS011;21300;52.006;5.798;2023-04-01T02:11:01;23.95;;;7.93;;
35126;SDS011;21300;52.006;5.798;2023-04-01T02:13:31;25.92;;;8.88;;
35126;SDS011;21300;52.006;5.798;2023-04-01T02:16:40;21.30;;;8.98;;
35126;SDS011;21300;52.006;5.798;2023-04-01T02:19:24;26.13;;;9.15;;
35126;SDS011;21300;52.006;5.798;2023-04-01T02:21:55;17.50;;;8.23;;
35126;SDS011;21300;52.006;5.798;2023-04-01T02:24:24;26.83;;;8.45;;
35126;SDS011;21300;52.006;5.798;2023-04-01T02:26:53;23.50;;;8.88;;
35126;SDS011;21300;52.006;5.798;2023-04-01T02:29:21;19.45;;;7.65;;
35126;SDS011;21300;52.006;5.798;2023-04-01T02:31:49;18.33;;;8.07;;
35126;SDS011;21300;52.006;5.798;2023-04-01T02:34:16;16.40;;;6.53;;
35126;SDS011;21300;52.006;5.798;2023-04-01T02:36:42;16.70;;;7.05;;
35126;SDS011;21300;52.006;5.798;2023-04-01T02:39:08;19.60;;;6.80;;
35126;SDS011;21300;52.006;5.798;2023-04-01T02:41:40;17.63;;;7.00;;
35126;SDS011;21300;52.006;5.798;2023-04-01T02:44:07;16.98;;;7.82;;
35126;SDS011;21300;52.006;5.798;2023-04-01T02:46:34;21.05;;;7.38;;
35126;SDS011;21300;52.006;5.798;2023-04-01T02:49:00;15.98;;;7.50;;
35126;SDS011;21300;52.006;5.798;2023-04-01T02:51:25;15.63;;;6.70;;
35126;SDS011;21300;52.006;5.798;2023-04-01T02:53:51;11.30;;;6.15;;
35126;SDS011;21300;52.006;5.798;2023-04-01T02:56:17;16.00;;;5.88;;
35126;SDS011;21300;52.006;5.798;2023-04-01T02:58:44;15.93;;;5.60;;
35126;SDS011;21300;52.006;5.798;2023-04-01T03:01:10;12.30;;;5.20;;
35126;SDS011;21300;52.006;5.798;2023-04-01T03:03:36;10.38;;;5.88;;
35126;SDS011;21300;52.006;5.798;2023-04-01T03:06:05;10.30;;;6.03;;
35126;SDS011;21300;52.006;5.798;2023-04-01T03:08:36;9.63;;;5.38;;
35126;SDS011;21300;52.006;5.798;2023-04-01T03:11:02;9.25;;;5.50;;
35126;SDS011;21300;52.006;5.798;2023-04-01T03:13:28;9.68;;;5.63;;
35126;SDS011;21300;52.006;5.798;2023-04-01T03:15:53;11.63;;;6.18;;
35126;SDS011;21300;52.006;5.798;2023-04-01T03:18:19;8.45;;;5.70;;
35126;SDS011;21300;52.006;5.798;2023-04-01T03:20:45;8.65;;;5.65;;
35126;SDS011;21300;52.006;5.798;2023-04-01T03:23:11;9.05;;;5.22;;
35126;SDS011;21300;52.006;5.798;2023-04-01T03:25:37;11.85;;;6.25;;
35126;SDS011;21300;52.006;5.798;2023-04-01T03:28:02;11.10;;;5.20;;
35126;SDS011;21300;52.006;5.798;2023-04-01T03:30:28;9.02;;;5.18;;
35126;SDS011;21300;52.006;5.798;2023-04-01T03:32:57;9.40;;;5.20;;
35126;SDS011;21300;52.006;5.798;2023-04-01T03:35:24;9.75;;;5.45;;
35126;SDS011;21300;52.006;5.798;2023-04-01T03:37:50;10.18;;;5.53;;
35126;SDS011;21300;52.006;5.798;2023-04-01T03:40:16;8.38;;;5.47;;
35126;SDS011;21300;52.006;5.798;2023-04-01T03:42:42;10.00;;;5.22;;
35126;SDS011;21300;52.006;5.798;2023-04-01T03:45:07;7.80;;;4.88;;
35126;SDS011;21300;52.006;5.798;2023-04-01T03:47:34;7.78;;;5.03;;
35126;SDS011;21300;52.006;5.798;2023-04-01T03:50:00;8.85;;;5.35;;
35126;SDS011;21300;52.006;5.798;2023-04-01T03:52:26;11.00;;;5.63;;
35126;SDS011;21300;52.006;5.798;2023-04-01T03:54:52;10.57;;;5.57;;
35126;SDS011;21300;52.006;5.798;2023-04-01T03:57:17;7.53;;;4.60;;
35126;SDS011;21300;52.006;5.798;2023-04-01T03:59:43;6.68;;;4.18;;
35126;SDS011;21300;52.006;5.798;2023-04-01T04:02:08;7.80;;;4.88;;
35126;SDS011;21300;52.006;5.798;2023-04-01T04:04:34;7.72;;;5.03;;
35126;SDS011;21300;52.006;5.798;2023-04-01T04:07:00;7.18;;;5.07;;
35126;SDS011;21300;52.006;5.798;2023-04-01T04:09:26;9.82;;;5.57;;
35126;SDS011;21300;52.006;5.798;2023-04-01T04:11:51;7.95;;;4.53;;
35126;SDS011;21300;52.006;5.798;2023-04-01T04:14:17;8.50;;;4.60;;
35126;SDS011;21300;52.006;5.798;2023-04-01T04:16:43;7.45;;;4.95;;
35126;SDS011;21300;52.006;5.798;2023-04-01T04:19:09;8.38;;;5.45;;
35126;SDS011;21300;52.006;5.798;2023-04-01T04:21:35;7.85;;;5.38;;
35126;SDS011;21300;52.006;5.798;2023-04-01T04:24:00;10.25;;;5.68;;
35126;SDS011;21300;52.006;5.798;2023-04-01T04:26:26;8.38;;;5.60;;
35126;SDS011;21300;52.006;5.798;2023-04-01T04:28:53;9.57;;;5.50;;
35126;SDS011;21300;52.006;5.798;2023-04-01T04:31:20;10.18;;;6.43;;
35126;SDS011;21300;52.006;5.798;2023-04-01T04:33:47;7.45;;;5.38;;
35126;SDS011;21300;52.006;5.798;2023-04-01T04:36:12;8.75;;;5.32;;
35126;SDS011;21300;52.006;5.798;2023-04-01T04:38:38;5.78;;;5.07;;
35126;SDS011;21300;52.006;5.798;2023-04-01T04:41:08;8.18;;;5.60;;
35126;SDS011;21300;52.006;5.798;2023-04-01T04:43:34;7.10;;;5.40;;
35126;SDS011;21300;52.006;5.798;2023-04-01T04:46:03;7.30;;;5.78;;
35126;SDS011;21300;52.006;5.798;2023-04-01T04:48:30;9.10;;;6.10;;
35126;SDS011;21300;52.006;5.798;2023-04-01T04:50:56;8.75;;;5.60;;
35126;SDS011;21300;52.006;5.798;2023-04-01T04:53:22;10.75;;;7.22;;
35126;SDS011;21300;52.006;5.798;2023-04-01T04:55:48;8.65;;;6.72;;
35126;SDS011;21300;52.006;5.798;2023-04-01T04:58:15;8.68;;;6.90;;
35126;SDS011;21300;52.006;5.798;2023-04-01T05:00:41;9.05;;;7.05;;
35126;SDS011;21300;52.006;5.798;2023-04-01T05:03:07;8.52;;;7.03;;
35126;SDS011;21300;52.006;5.798;2023-04-01T05:05:34;9.43;;;6.95;;
35126;SDS011;21300;52.006;5.798;2023-04-01T05:08:00;10.38;;;7.60;;
35126;SDS011;21300;52.006;5.798;2023-04-01T05:10:26;8.88;;;7.53;;
35126;SDS011;21300;52.006;5.798;2023-04-01T05:12:51;9.90;;;7.68;;
35126;SDS011;21300;52.006;5.798;2023-04-01T05:15:17;10.93;;;7.60;;
35126;SDS011;21300;52.006;5.798;2023-04-01T05:17:42;8.80;;;7.13;;
35126;SDS011;21300;52.006;5.798;2023-04-01T05:20:08;9.07;;;6.88;;
35126;SDS011;21300;52.006;5.798;2023-04-01T05:22:34;9.25;;;6.93;;
35126;SDS011;21300;52.006;5.798;2023-04-01T05:25:00;12.98;;;7.18;;
35126;SDS011;21300;52.006;5.798;2023-04-01T05:27:25;8.98;;;6.72;;
35126;SDS011;21300;52.006;5.798;2023-04-01T05:29:51;9.00;;;6.40;;
35126;SDS011;21300;52.006;5.798;2023-04-01T05:32:17;9.00;;;6.68;;
35126;SDS011;21300;52.006;5.798;2023-04-01T05:34:42;8.35;;;6.20;;
35126;SDS011;21300;52.006;5.798;2023-04-01T05:37:08;9.00;;;6.45;;
35126;SDS011;21300;52.006;5.798;2023-04-01T05:39:37;9.15;;;5.95;;
35126;SDS011;21300;52.006;5.798;2023-04-01T05:42:05;8.93;;;6.13;;
35126;SDS011;21300;52.006;5.798;2023-04-01T05:44:31;11.73;;;7.28;;
35126;SDS011;21300;52.006;5.798;2023-04-01T05:46:57;10.07;;;6.80;;
35126;SDS011;21300;52.006;5.798;2023-04-01T05:49:22;9.60;;;5.97;;
35126;SDS011;21300;52.006;5.798;2023-04-01T05:51:48;13.07;;;7.53;;
35126;SDS011;21300;52.006;5.798;2023-04-01T05:54:13;14.13;;;8.80;;
35126;SDS011;21300;52.006;5.798;2023-04-01T05:56:57;15.98;;;9.50;;
35126;SDS011;21300;52.006;5.798;2023-04-01T05:59:23;17.92;;;9.82;;
35126;SDS011;21300;52.006;5.798;2023-04-01T06:01:48;16.70;;;10.10;;
35126;SDS011;21300;52.006;5.798;2023-04-01T06:04:15;21.70;;;12.25;;
35126;SDS011;21300;52.006;5.798;2023-04-01T06:06:42;21.00;;;10.65;;
35126;SDS011;21300;52.006;5.798;2023-04-01T06:09:13;21.73;;;11.40;;
35126;SDS011;21300;52.006;5.798;2023-04-01T06:14:10;20.73;;;10.95;;
35126;SDS011;21300;52.006;5.798;2023-04-01T06:16:54;18.80;;;9.45;;
35126;SDS011;21300;52.006;5.798;2023-04-01T06:33:28;14.18;;;8.35;;
35126;SDS011;21300;52.006;5.798;2023-04-01T06:39:15;17.58;;;7.03;;
35126;SDS011;21300;52.006;5.798;2023-04-01T06:42:13;12.15;;;6.90;;
35126;SDS011;21300;52.006;5.798;2023-04-01T06:47:52;11.32;;;6.30;;
35126;SDS011;21300;52.006;5.798;2023-04-01T06:50:23;8.93;;;5.60;;
35126;SDS011;21300;52.006;5.798;2023-04-01T06:56:16;8.32;;;5.25;;
35126;SDS011;21300;52.006;5.798;2023-04-01T07:04:27;8.60;;;4.93;;
35126;SDS011;21300;52.006;5.798;2023-04-01T07:09:28;7.88;;;4.38;;
35126;SDS011;21300;52.006;5.798;2023-04-01T07:12:00;4.43;;;2.72;;
35126;SDS011;21300;52.006;5.798;2023-04-01T07:14:35;3.38;;;2.10;;
35126;SDS011;21300;52.006;5.798;2023-04-01T07:17:09;5.72;;;2.35;;
35126;SDS011;21300;52.006;5.798;2023-04-01T07:19:47;4.28;;;2.17;;
35126;SDS011;21300;52.006;5.798;2023-04-01T07:22:27;2.90;;;1.73;;
35126;SDS011;21300;52.006;5.798;2023-04-01T07:25:15;4.50;;;2.03;;
35126;SDS011;21300;52.006;5.798;2023-04-01T07:27:44;2.80;;;1.85;;
35126;SDS011;21300;52.006;5.798;2023-04-01T07:30:14;4.57;;;1.88;;
35126;SDS011;21300;52.006;5.798;2023-04-01T07:32:48;3.05;;;1.85;;
35126;SDS011;21300;52.006;5.798;2023-04-01T07:38:19;2.97;;;1.88;;
35126;SDS011;21300;52.006;5.798;2023-04-01T07:46:40;3.88;;;2.67;;
35126;SDS011;21300;52.006;5.798;2023-04-01T07:49:14;4.72;;;2.85;;
35126;SDS011;21300;52.006;5.798;2023-04-01T07:54:32;4.72;;;2.55;;
35126;SDS011;21300;52.006;5.798;2023-04-01T07:57:04;4.35;;;2.63;;
35126;SDS011;21300;52.006;5.798;2023-04-01T07:59:45;3.83;;;2.17;;
35126;SDS011;21300;52.006;5.798;2023-04-01T08:05:19;3.50;;;2.30;;
35126;SDS011;21300;52.006;5.798;2023-04-01T08:08:03;3.97;;;2.03;;
35126;SDS011;21300;52.006;5.798;2023-04-01T08:10:46;3.22;;;2.08;;
35126;SDS011;21300;52.006;5.798;2023-04-01T08:13:40;3.47;;;1.40;;
35126;SDS011;21300;52.006;5.798;2023-04-01T08:16:23;2.83;;;1.60;;
35126;SDS011;21300;52.006;5.798;2023-04-01T08:18:58;1.52;;;0.98;;
35126;SDS011;21300;52.006;5.798;2023-04-01T08:21:43;2.40;;;1.20;;
35126;SDS011;21300;52.006;5.798;2023-04-01T08:24:17;3.28;;;1.27;;
35126;SDS011;21300;52.006;5.798;2023-04-01T08:27:09;1.92;;;1.25;;
35126;SDS011;21300;52.006;5.798;2023-04-01T08:29:46;2.47;;;1.25;;
35126;SDS011;21300;52.006;5.798;2023-04-01T08:32:28;2.83;;;1.60;;
35126;SDS011;21300;52.006;5.798;2023-04-01T08:35:09;1.88;;;1.27;;
35126;SDS011;21300;52.006;5.798;2023-04-01T08:37:50;3.28;;;1.45;;
35126;SDS011;21300;52.006;5.798;2023-04-01T08:40:33;2.60;;;1.45;;
35126;SDS011;21300;52.006;5.798;2023-04-01T08:59:55;3.65;;;2.20;;
35126;SDS011;21300;52.006;5.798;2023-04-01T09:13:38;3.92;;;1.70;;
35126;SDS011;21300;52.006;5.798;2023-04-01T09:16:29;3.25;;;1.92;;
35126;SDS011;21300;52.006;5.798;2023-04-01T09:19:20;3.50;;;2.28;;
35126;SDS011;21300;52.006;5.798;2023-04-01T09:21:57;4.35;;;1.80;;
35126;SDS011;21300;52.006;5.798;2023-04-01T09:27:38;3.95;;;1.90;;
35126;SDS011;21300;52.006;5.798;2023-04-01T09:36:04;5.00;;;2.40;;
35126;SDS011;21300;52.006;5.798;2023-04-01T09:41:27;3.85;;;2.22;;
35126;SDS011;21300;52.006;5.798;2023-04-01T09:44:21;3.75;;;2.58;;
35126;SDS011;21300;52.006;5.798;2023-04-01T09:50:03;4.22;;;2.35;;
35126;SDS011;21300;52.006;5.798;2023-04-01T10:03:35;6.32;;;4.03;;
35126;SDS011;21300;52.006;5.798;2023-04-01T10:06:18;6.93;;;4.45;;
35126;SDS011;21300;52.006;5.798;2023-04-01T10:12:24;7.97;;;5.00;;
35126;SDS011;21300;52.006;5.798;2023-04-01T10:17:54;14.10;;;6.78;;
35126;SDS011;21300;52.006;5.798;2023-04-01T10:20:42;11.15;;;6.90;;
35126;SDS011;21300;52.006;5.798;2023-04-01T10:36:58;14.45;;;8.48;;
35126;SDS011;21300;52.006;5.798;2023-04-01T10:42:39;13.95;;;8.05;;
35126;SDS011;21300;52.006;5.798;2023-04-01T10:48:22;15.52;;;9.10;;
35126;SDS011;21300;52.006;5.798;2023-04-01T10:56:39;16.10;;;8.48;;
35126;SDS011;21300;52.006;5.798;2023-04-01T11:16:06;11.98;;;7.38;;
35126;SDS011;21300;52.006;5.798;2023-04-01T11:21:28;8.18;;;4.78;;
35126;SDS011;21300;52.006;5.798;2023-04-01T11:24:20;4.28;;;3.05;;
35126;SDS011;21300;52.006;5.798;2023-04-01T11:43:42;3.50;;;2.53;;
35126;SDS011;21300;52.006;5.798;2023-04-01T11:48:58;4.15;;;2.58;;
35126;SDS011;21300;52.006;5.798;2023-04-01T11:55:00;3.25;;;1.90;;
35126;SDS011;21300;52.006;5.798;2023-04-01T12:00:15;2.40;;;1.75;;
35126;SDS011;21300;52.006;5.798;2023-04-01T12:03:10;2.95;;;1.80;;
35126;SDS011;21300;52.006;5.798;2023-04-01T12:09:48;3.85;;;2.45;;
35126;SDS011;21300;52.006;5.798;2023-04-01T12:17:36;3.63;;;2.55;;
35126;SDS011;21300;52.006;5.798;2023-04-01T12:25:57;4.63;;;3.25;;
35126;SDS011;21300;52.006;5.798;2023-04-01T12:37:34;7.55;;;4.07;;
35126;SDS011;21300;52.006;5.798;2023-04-01T12:46:14;5.40;;;4.20;;
35126;SDS011;21300;52.006;5.798;2023-04-01T12:51:30;5.70;;;3.97;;
35126;SDS011;21300;52.006;5.798;2023-04-01T13:02:11;6.25;;;4.45;;
35126;SDS011;21300;52.006;5.798;2023-04-01T13:07:51;6.32;;;4.13;;
35126;SDS011;21300;52.006;5.798;2023-04-01T13:10:44;7.38;;;4.63;;
35126;SDS011;21300;52.006;5.798;2023-04-01T13:16:07;5.63;;;3.70;;
35126;SDS011;21300;52.006;5.798;2023-04-01T13:19:32;5.25;;;3.47;;
35126;SDS011;21300;52.006;5.798;2023-04-01T13:27:27;3.90;;;2.80;;
35126;SDS011;21300;52.006;5.798;2023-04-01T13:35:46;5.22;;;3.30;;
35126;SDS011;21300;52.006;5.798;2023-04-01T13:38:24;4.07;;;2.85;;
35126;SDS011;21300;52.006;5.798;2023-04-01T13:43:58;5.72;;;3.50;;
35126;SDS011;21300;52.006;5.798;2023-04-01T13:54:52;4.90;;;3.45;;
35126;SDS011;21300;52.006;5.798;2023-04-01T14:01:10;7.80;;;3.60;;
35126;SDS011;21300;52.006;5.798;2023-04-01T14:06:28;6.35;;;3.78;;
35126;SDS011;21300;52.006;5.798;2023-04-01T14:09:11;5.28;;;3.63;;
35126;SDS011;21300;52.006;5.798;2023-04-01T14:20:28;4.88;;;3.33;;
35126;SDS011;21300;52.006;5.798;2023-04-01T14:26:01;8.32;;;3.45;;
35126;SDS011;21300;52.006;5.798;2023-04-01T14:34:59;5.68;;;3.65;;
35126;SDS011;21300;52.006;5.798;2023-04-01T14:40:37;5.78;;;3.60;;
35126;SDS011;21300;52.006;5.798;2023-04-01T14:51:48;3.60;;;2.90;;
35126;SDS011;21300;52.006;5.798;2023-04-01T14:54:15;4.25;;;3.08;;
35126;SDS011;21300;52.006;5.798;2023-04-01T14:56:51;3.30;;;2.70;;
35126;SDS011;21300;52.006;5.798;2023-04-01T15:02:36;3.85;;;2.60;;
35126;SDS011;21300;52.006;5.798;2023-04-01T15:05:32;3.42;;;2.55;;
35126;SDS011;21300;52.006;5.798;2023-04-01T15:16:17;6.55;;;3.30;;
35126;SDS011;21300;52.006;5.798;2023-04-01T15:33:02;6.15;;;4.70;;
35126;SDS011;21300;52.006;5.798;2023-04-01T15:38:25;6.22;;;4.70;;
35126;SDS011;21300;52.006;5.798;2023-04-01T15:41:15;6.30;;;4.82;;
35126;SDS011;21300;52.006;5.798;2023-04-01T15:43:48;5.68;;;4.82;;
35126;SDS011;21300;52.006;5.798;2023-04-01T15:52:00;7.47;;;5.97;;
35126;SDS011;21300;52.006;5.798;2023-04-01T15:55:19;6.72;;;5.15;;
35126;SDS011;21300;52.006;5.798;2023-04-01T16:08:49;6.30;;;5.20;;
35126;SDS011;21300;52.006;5.798;2023-04-01T16:11:25;5.88;;;4.82;;
35126;SDS011;21300;52.006;5.798;2023-04-01T16:27:44;6.97;;;6.22;;
35126;SDS011;21300;52.006;5.798;2023-04-01T16:32:57;7.45;;;5.43;;
35126;SDS011;21300;52.006;5.798;2023-04-01T16:51:57;5.13;;;4.22;;
35126;SDS011;21300;52.006;5.798;2023-04-01T16:54:54;6.55;;;4.47;;
35126;SDS011;21300;52.006;5.798;2023-04-01T16:57:30;6.07;;;4.50;;
35126;SDS011;21300;52.006;5.798;2023-04-01T17:08:50;5.82;;;4.60;;
35126;SDS011;21300;52.006;5.798;2023-04-01T17:17:23;4.50;;;3.65;;
35126;SDS011;21300;52.006;5.798;2023-04-01T17:22:25;6.45;;;4.65;;
35126;SDS011;21300;52.006;5.798;2023-04-01T17:30:53;5.07;;;4.53;;
35126;SDS011;21300;52.006;5.798;2023-04-01T17:33:40;6.65;;;4.60;;
35126;SDS011;21300;52.006;5.798;2023-04-01T17:36:45;6.18;;;4.95;;
35126;SDS011;21300;52.006;5.798;2023-04-01T17:39:37;8.05;;;4.32;;
35126;SDS011;21300;52.006;5.798;2023-04-01T17:42:21;5.53;;;4.55;;
35126;SDS011;21300;52.006;5.798;2023-04-01T17:45:22;6.97;;;5.43;;
35126;SDS011;21300;52.006;5.798;2023-04-01T17:51:08;6.03;;;5.18;;
35126;SDS011;21300;52.006;5.798;2023-04-01T17:56:47;5.18;;;4.10;;
35126;SDS011;21300;52.006;5.798;2023-04-01T18:02:10;4.63;;;3.47;;
35126;SDS011;21300;52.006;5.798;2023-04-01T18:07:51;5.43;;;4.45;;
35126;SDS011;21300;52.006;5.798;2023-04-01T18:13:13;6.03;;;4.28;;
35126;SDS011;21300;52.006;5.798;2023-04-01T18:16:02;5.78;;;4.70;;
35126;SDS011;21300;52.006;5.798;2023-04-01T18:24:16;5.60;;;4.97;;
35126;SDS011;21300;52.006;5.798;2023-04-01T18:29:48;4.68;;;3.47;;
35126;SDS011;21300;52.006;5.798;2023-04-01T18:37:45;7.47;;;6.05;;
35126;SDS011;21300;52.006;5.798;2023-04-01T18:40:38;8.13;;;6.70;;
35126;SDS011;21300;52.006;5.798;2023-04-01T18:43:20;6.15;;;4.53;;
35126;SDS011;21300;52.006;5.798;2023-04-01T18:45:59;8.30;;;5.88;;
35126;SDS011;21300;52.006;5.798;2023-04-01T18:51:20;6.70;;;5.47;;
35126;SDS011;21300;52.006;5.798;2023-04-01T18:53:57;7.93;;;6.30;;
35126;SDS011;21300;52.006;5.798;2023-04-01T19:06:56;5.65;;;4.97;;
35126;SDS011;21300;52.006;5.798;2023-04-01T19:12:07;7.00;;;5.55;;
35126;SDS011;21300;52.006;5.798;2023-04-01T19:20:37;7.63;;;6.80;;
35126;SDS011;21300;52.006;5.798;2023-04-01T19:26:14;7.55;;;6.75;;
35126;SDS011;21300;52.006;5.798;2023-04-01T19:29:05;7.78;;;6.97;;
35126;SDS011;21300;52.006;5.798;2023-04-01T19:34:26;7.45;;;5.95;;
35126;SDS011;21300;52.006;5.798;2023-04-01T19:36:56;7.32;;;5.53;;
35126;SDS011;21300;52.006;5.798;2023-04-01T19:39:50;7.90;;;6.18;;
35126;SDS011;21300;52.006;5.798;2023-04-01T19:51:00;8.63;;;6.88;;
35126;SDS011;21300;52.006;5.798;2023-04-01T19:53:44;5.25;;;4.65;;
35126;SDS011;21300;52.006;5.798;2023-04-01T19:56:17;6.03;;;5.32;;
35126;SDS011;21300;52.006;5.798;2023-04-01T19:58:54;5.90;;;5.28;;
35126;SDS011;21300;52.006;5.798;2023-04-01T20:01:33;7.53;;;5.40;;
35126;SDS011;21300;52.006;5.798;2023-04-01T20:04:03;8.93;;;6.63;;
35126;SDS011;21300;52.006;5.798;2023-04-01T20:06:43;7.10;;;6.18;;
35126;SDS011;21300;52.006;5.798;2023-04-01T20:12:20;7.70;;;6.18;;
35126;SDS011;21300;52.006;5.798;2023-04-01T20:15:00;8.20;;;6.53;;
35126;SDS011;21300;52.006;5.798;2023-04-01T20:17:44;8.43;;;6.78;;
35126;SDS011;21300;52.006;5.798;2023-04-01T20:25:13;8.90;;;7.75;;
35126;SDS011;21300;52.006;5.798;2023-04-01T20:27:50;9.57;;;8.48;;
35126;SDS011;21300;52.006;5.798;2023-04-01T20:33:14;10.02;;;8.60;;
35126;SDS011;21300;52.006;5.798;2023-04-01T20:36:15;9.57;;;7.75;;
35126;SDS011;21300;52.006;5.798;2023-04-01T20:42:34;11.75;;;8.95;;
35126;SDS011;21300;52.006;5.798;2023-04-01T20:47:15;9.90;;;8.48;;
35126;SDS011;21300;52.006;5.798;2023-04-01T20:53:07;11.05;;;9.85;;
35126;SDS011;21300;52.006;5.798;2023-04-01T20:58:13;9.85;;;8.85;;
35126;SDS011;21300;52.006;5.798;2023-04-01T21:06:47;11.60;;;10.35;;
35126;SDS011;21300;52.006;5.798;2023-04-01T21:14:46;13.98;;;10.05;;
35126;SDS011;21300;52.006;5.798;2023-04-01T21:17:17;11.73;;;10.17;;
35126;SDS011;21300;52.006;5.798;2023-04-01T21:20:32;12.13;;;10.27;;
35126;SDS011;21300;52.006;5.798;2023-04-01T21:31:17;11.50;;;8.93;;
35126;SDS011;21300;52.006;5.798;2023-04-01T21:34:25;11.02;;;9.27;;
35126;SDS011;21300;52.006;5.798;2023-04-01T21:37:13;11.15;;;9.80;;
35126;SDS011;21300;52.006;5.798;2023-04-01T21:53:19;12.07;;;10.75;;
35126;SDS011;21300;52.006;5.798;2023-04-01T21:55:53;12.65;;;10.48;;
35126;SDS011;21300;52.006;5.798;2023-04-01T22:04:10;11.60;;;10.40;;
35126;SDS011;21300;52.006;5.798;2023-04-01T22:06:56;10.57;;;9.00;;
35126;SDS011;21300;52.006;5.798;2023-04-01T22:09:29;10.27;;;9.02;;
35126;SDS011;21300;52.006;5.798;2023-04-01T22:15:17;12.30;;;9.80;;
35126;SDS011;21300;52.006;5.798;2023-04-01T22:18:13;9.48;;;8.55;;
35126;SDS011;21300;52.006;5.798;2023-04-01T22:21:13;9.95;;;8.27;;
35126;SDS011;21300;52.006;5.798;2023-04-01T22:26:54;9.50;;;8.45;;
35126;SDS011;21300;52.006;5.798;2023-04-01T22:29:38;9.13;;;8.07;;
35126;SDS011;21300;52.006;5.798;2023-04-01T22:40:45;9.67;;;8.03;;
35126;SDS011;21300;52.006;5.798;2023-04-01T22:43:36;9.18;;;7.32;;
35126;SDS011;21300;52.006;5.798;2023-04-01T22:46:20;10.77;;;8.40;;
35126;SDS011;21300;52.006;5.798;2023-04-01T22:51:52;11.10;;;9.52;;
35126;SDS011;21300;52.006;5.798;2023-04-01T22:54:36;12.27;;;9.10;;
35126;SDS011;21300;52.006;5.798;2023-04-01T22:57:10;10.65;;;7.70;;
35126;SDS011;21300;52.006;5.798;2023-04-01T23:00:01;14.20;;;9.70;;
35126;SDS011;21300;52.006;5.798;2023-04-01T23:02:40;13.43;;;9.80;;
35126;SDS011;21300;52.006;5.798;2023-04-01T23:05:11;11.80;;;10.27;;
35126;SDS011;21300;52.006;5.798;2023-04-01T23:10:42;12.15;;;10.73;;
35126;SDS011;21300;52.006;5.798;2023-04-01T23:13:18;14.07;;;11.50;;
35126;SDS011;21300;52.006;5.798;2023-04-01T23:16:08;12.43;;;10.88;;
35126;SDS011;21300;52.006;5.798;2023-04-01T23:18:57;13.70;;;11.00;;
35126;SDS011;21300;52.006;5.798;2023-04-01T23:21:38;16.23;;;12.02;;
35126;SDS011;21300;52.006;5.798;2023-04-01T23:29:26;15.70;;;12.93;;
35126;SDS011;21300;52.006;5.798;2023-04-01T23:31:56;13.93;;;11.77;;
35126;SDS011;21300;52.006;5.798;2023-04-01T23:34:27;16.88;;;11.93;;
35126;SDS011;21300;52.006;5.798;2023-04-01T23:37:04;16.30;;;12.40;;
35126;SDS011;21300;52.006;5.798;2023-04-01T23:39:34;15.98;;;10.65;;
35126;SDS011;21300;52.006;5.798;2023-04-01T23:42:03;14.25;;;11.63;;
35126;SDS011;21300;52.006;5.798;2023-04-01T23:44:37;15.65;;;12.23;;
35126;SDS011;21300;52.006;5.798;2023-04-01T23:47:04;18.35;;;12.32;;
35126;SDS011;21300;52.006;5.798;2023-04-01T23:49:35;12.00;;;8.80;;
35126;SDS011;21300;52.006;5.798;2023-04-01T23:52:10;14.15;;;11.35;;
35126;SDS011;21300;52.006;5.798;2023-04-01T23:54:51;12.45;;;10.35;;
35126;SDS011;21300;52.006;5.798;2023-04-01T23:57:29;11.88;;;8.90;;
